Terminal Aerodrome Forecast
Issued by NWS

Home | Current Version | Previous Version | Text Only | Print | Product List | Glossary On
Versions: 1 2 3 4 5 6 7 8 9 10 11 12 13 14 15 16 17 18 19 20 21 22 23 24 25 26 27 28 29 30 31 32 33 34 35 36 37 38 39 40 41 42 43 44 45 46 47 48 49 50
000
FTUS42 KRAH 181241 AAB
TAFINT
TAF AMD
KINT 181241Z 1813/1912 VRB03KT P6SM SCT002 BKN150
      TEMPO 1813/1814 BKN004
     FM181400 03005KT P6SM SCT025 BKN250
     FM181800 08005KT P6SM BKN250=

USA.gov is the U.S. government's official web portal to all federal, state and local government web resources and services.